createdAt,value
2022-11-05T00:01:37.634Z,99349.75
2022-11-05T00:04:58.718Z,99358.41
2022-11-05T00:08:21.747Z,99363.31
2022-11-05T00:11:44.020Z,99362.84
2022-11-05T00:15:04.939Z,99347.19
2022-11-05T00:18:07.333Z,99350.63
2022-11-05T00:21:29.759Z,99353.69
2022-11-05T00:24:50.612Z,99348.22
2022-11-05T00:27:53.742Z,99342.56
2022-11-05T00:31:09.923Z,99342.94
2022-11-05T00:34:12.341Z,99355.78
2022-11-05T00:37:14.552Z,99357.38
2022-11-05T00:40:16.856Z,99357.31
2022-11-05T00:43:38.051Z,99354.00
2022-11-05T00:46:40.335Z,99367.81
2022-11-05T00:49:42.604Z,99371.78
2022-11-05T00:52:57.188Z,99360.69
2022-11-05T00:56:00.664Z,99366.50
2022-11-05T00:59:02.964Z,99374.28
2022-11-05T01:02:05.321Z,99365.56
2022-11-05T01:05:08.171Z,99358.63
2022-11-05T01:08:11.590Z,99365.66
2022-11-05T01:11:34.183Z,99352.41
2022-11-05T01:14:36.486Z,99354.25
2022-11-05T01:17:38.974Z,99357.16
2022-11-05T01:20:41.294Z,99355.34
2022-11-05T01:23:43.583Z,99358.44
2022-11-05T01:26:45.926Z,99357.19
2022-11-05T01:29:48.364Z,99356.88
2022-11-05T01:32:50.721Z,99356.47
2022-11-05T01:35:53.553Z,99358.63
2022-11-05T01:38:56.019Z,99355.25
2022-11-05T01:41:58.942Z,99362.13
2022-11-05T01:45:12.522Z,99373.25
2022-11-05T01:48:18.503Z,99381.00
2022-11-05T01:51:23.830Z,99395.44
2022-11-05T01:54:28.315Z,99404.00
2022-11-05T01:57:31.815Z,99397.88
2022-11-05T02:00:34.967Z,99371.72
2022-11-05T02:03:37.492Z,99374.84
2022-11-05T02:06:46.256Z,99382.38
2022-11-05T02:09:54.895Z,99388.19
2022-11-05T02:12:57.223Z,99384.63
2022-11-05T02:16:05.986Z,99389.00
2022-11-05T02:19:48.160Z,99386.16
2022-11-05T02:23:10.750Z,99390.94
2022-11-05T02:26:32.708Z,99380.44
2022-11-05T02:29:40.679Z,99399.69
2022-11-05T02:32:55.112Z,99405.59
2022-11-05T02:36:03.426Z,99398.91
2022-11-05T02:39:12.351Z,99398.03
2022-11-05T02:42:34.602Z,99388.81
2022-11-05T02:45:47.079Z,99406.81
2022-11-05T02:48:50.588Z,99408.81
2022-11-05T02:52:04.843Z,99419.41
2022-11-05T02:55:07.356Z,99430.06
2022-11-05T02:58:10.607Z,99434.00
2022-11-05T03:01:13.050Z,99414.19
2022-11-05T03:04:17.590Z,99418.66
2022-11-05T03:07:31.137Z,99409.25
2022-11-05T03:10:41.849Z,99408.81
2022-11-05T03:14:00.468Z,99414.69
2022-11-05T03:17:30.829Z,99429.63
2022-11-05T03:20:38.175Z,99432.53
2022-11-05T03:24:21.877Z,99442.31
2022-11-05T03:27:29.572Z,99454.44
2022-11-05T03:30:33.113Z,99455.44
2022-11-05T03:33:37.097Z,99449.78
2022-11-05T03:36:42.121Z,99441.97
2022-11-05T03:39:48.596Z,99446.91
2022-11-05T03:42:53.547Z,99447.38
2022-11-05T03:46:29.989Z,99451.47
2022-11-05T03:49:56.363Z,99447.66
2022-11-05T03:53:04.008Z,99443.63
2022-11-05T03:56:10.953Z,99457.00
2022-11-05T03:59:14.134Z,99457.94
2022-11-05T04:02:18.903Z,99458.78
2022-11-05T04:05:21.330Z,99457.47
2022-11-05T04:08:43.488Z,99452.19
2022-11-05T04:12:04.467Z,99437.38
2022-11-05T04:15:07.400Z,99437.38
2022-11-05T04:18:09.709Z,99444.53
2022-11-05T04:21:30.544Z,99424.31
2022-11-05T04:24:32.913Z,99438.91
2022-11-05T04:27:35.762Z,99442.66
2022-11-05T04:30:37.992Z,99435.16
2022-11-05T04:33:40.276Z,99429.00
2022-11-05T04:36:43.142Z,99430.31
2022-11-05T04:39:45.400Z,99421.19
2022-11-05T04:42:47.810Z,99426.03
2022-11-05T04:45:50.096Z,99423.13
2022-11-05T04:48:52.431Z,99429.72
2022-11-05T04:51:54.719Z,99425.34
2022-11-05T04:54:57.029Z,99434.56
2022-11-05T04:57:59.337Z,99443.50
2022-11-05T05:01:01.724Z,99439.72
2022-11-05T05:04:04.232Z,99444.66
2022-11-05T05:07:06.515Z,99441.41
2022-11-05T05:10:10.179Z,99447.44
2022-11-05T05:13:12.718Z,99452.06
2022-11-05T05:16:26.154Z,99461.09
2022-11-05T05:19:29.204Z,99453.31
2022-11-05T05:22:31.431Z,99436.56
2022-11-05T05:25:33.676Z,99453.69
2022-11-05T05:28:36.082Z,99448.59
2022-11-05T05:31:38.850Z,99451.41
2022-11-05T05:34:41.133Z,99448.31
2022-11-05T05:37:44.381Z,99439.16
2022-11-05T05:40:46.745Z,99443.84
2022-11-05T05:43:49.404Z,99462.25
2022-11-05T05:46:54.174Z,99466.56
2022-11-05T05:49:56.429Z,99465.03
2022-11-05T05:52:58.726Z,99468.25
2022-11-05T05:56:01.004Z,99483.88
2022-11-05T05:59:05.171Z,99484.78
2022-11-05T06:02:07.529Z,99492.13
2022-11-05T06:05:10.100Z,99493.16
2022-11-05T06:08:12.327Z,99515.13
2022-11-05T06:11:14.806Z,99512.59
2022-11-05T06:14:17.079Z,99515.00
2022-11-05T06:17:19.463Z,99522.44
2022-11-05T06:20:22.171Z,99521.72
2022-11-05T06:23:24.463Z,99532.94
2022-11-05T06:26:26.690Z,99534.44
2022-11-05T06:29:28.999Z,99537.06
2022-11-05T06:32:31.449Z,99532.34
2022-11-05T06:35:33.815Z,99531.53
2022-11-05T06:38:37.099Z,99541.94
2022-11-05T06:42:04.157Z,99558.03
2022-11-05T06:45:01.694Z,99551.31
2022-11-05T06:48:04.097Z,99550.38
2022-11-05T06:51:07.807Z,99559.88
2022-11-05T06:54:10.153Z,99538.84
2022-11-05T06:57:13.145Z,99555.56
2022-11-05T07:00:15.900Z,99551.78
2022-11-05T07:03:18.260Z,99560.56
2022-11-05T07:06:21.162Z,99551.53
2022-11-05T07:09:23.849Z,99556.25
2022-11-05T07:12:26.091Z,99555.38
2022-11-05T07:15:28.382Z,99559.84
2022-11-05T07:18:30.663Z,99560.41
2022-11-05T07:21:32.924Z,99557.91
2022-11-05T07:24:35.225Z,99555.72
2022-11-05T07:27:39.611Z,99557.28
2022-11-05T07:30:41.933Z,99556.75
2022-11-05T07:33:44.344Z,99564.06
2022-11-05T07:36:46.608Z,99555.78
2022-11-05T07:39:48.928Z,99554.97
2022-11-05T07:42:56.351Z,99558.38
2022-11-05T07:45:58.942Z,99557.44
2022-11-05T07:49:01.218Z,99553.97
2022-11-05T07:52:03.588Z,99559.59
2022-11-05T07:55:06.480Z,99561.78
2022-11-05T07:58:09.914Z,99563.84
2022-11-05T08:01:12.231Z,99557.91
2022-11-05T08:04:14.655Z,99553.19
2022-11-05T08:07:16.891Z,99561.41
2022-11-05T08:10:19.142Z,99555.78
2022-11-05T08:13:21.450Z,99570.78
2022-11-05T08:16:23.732Z,99562.03
2022-11-05T08:19:26.041Z,99539.66
2022-11-05T08:22:28.310Z,99538.94
2022-11-05T08:25:30.683Z,99541.13
2022-11-05T08:28:33.021Z,99529.91
2022-11-05T08:31:37.189Z,99526.97
2022-11-05T08:34:39.533Z,99521.59
2022-11-05T08:37:41.864Z,99539.47
2022-11-05T08:40:45.807Z,99548.84
2022-11-05T08:43:48.132Z,99545.16
2022-11-05T08:46:50.458Z,99540.38
2022-11-05T08:49:53.007Z,99551.97
2022-11-05T08:52:55.694Z,99559.97
2022-11-05T08:55:59.148Z,99548.63
2022-11-05T08:59:01.418Z,99560.91
2022-11-05T09:02:04.036Z,99568.56
2022-11-05T09:05:06.716Z,99566.63
2022-11-05T09:08:11.678Z,99566.78
2022-11-05T09:11:14.113Z,99575.13
2022-11-05T09:14:16.388Z,99571.56
2022-11-05T09:17:20.739Z,99583.28
2022-11-05T09:20:23.750Z,99593.97
2022-11-05T09:23:26.046Z,99587.78
2022-11-05T09:26:28.338Z,99592.34
2022-11-05T09:29:30.628Z,99597.09
2022-11-05T09:32:32.930Z,99590.72
2022-11-05T09:35:35.464Z,99587.50
2022-11-05T09:38:37.730Z,99589.25
2022-11-05T09:41:40.171Z,99596.50
2022-11-05T09:44:47.724Z,99595.84
2022-11-05T09:47:52.831Z,99597.38
2022-11-05T09:50:55.197Z,99588.88
2022-11-05T09:53:59.686Z,99589.09
2022-11-05T09:57:03.414Z,99594.22
2022-11-05T10:00:08.776Z,99579.72
2022-11-05T10:03:14.565Z,99595.31
2022-11-05T10:06:22.616Z,99600.47
2022-11-05T10:09:53.015Z,99592.03
2022-11-05T10:12:59.240Z,99578.59
2022-11-05T10:16:08.069Z,99587.59
2022-11-05T10:19:16.584Z,99593.16
2022-11-05T10:22:19.670Z,99592.03
2022-11-05T10:25:22.775Z,99598.78
2022-11-05T10:28:28.227Z,99584.50
2022-11-05T10:31:35.643Z,99590.41
2022-11-05T10:34:39.090Z,99590.34
2022-11-05T10:37:41.471Z,99603.53
2022-11-05T10:41:03.667Z,99583.44
2022-11-05T10:44:27.170Z,99596.28
2022-11-05T10:47:53.841Z,99582.44
2022-11-05T10:50:56.464Z,99597.25
2022-11-05T10:54:03.898Z,99606.31
2022-11-05T10:57:27.698Z,99611.06
2022-11-05T11:00:30.193Z,99608.72
2022-11-05T11:03:48.463Z,99618.03
2022-11-05T11:06:55.710Z,99615.63
2022-11-05T11:09:58.009Z,99609.63
2022-11-05T11:13:00.475Z,99613.03
2022-11-05T11:16:18.705Z,99621.25
2022-11-05T11:19:25.322Z,99618.88
2022-11-05T11:22:27.558Z,99613.94
2022-11-05T11:25:35.960Z,99608.75
2022-11-05T11:28:43.197Z,99619.25
2022-11-05T11:31:45.936Z,99614.75
2022-11-05T11:34:53.168Z,99622.63
2022-11-05T11:37:57.470Z,99607.00
2022-11-05T11:41:02.112Z,99614.00
2022-11-05T11:44:12.576Z,99618.44
2022-11-05T11:47:17.013Z,99625.97
2022-11-05T11:50:31.573Z,99628.94
2022-11-05T11:53:35.375Z,99617.50
2022-11-05T11:56:45.919Z,99621.69
2022-11-05T12:00:07.894Z,99610.66
2022-11-05T12:03:36.422Z,99624.34
2022-11-05T12:06:44.724Z,99625.69
2022-11-05T12:09:52.965Z,99625.94
2022-11-05T12:13:24.752Z,99623.78
2022-11-05T12:16:39.091Z,99626.69
2022-11-05T12:19:54.755Z,99631.31
2022-11-05T12:23:00.096Z,99635.75
2022-11-05T12:26:11.504Z,99639.88
2022-11-05T12:29:35.701Z,99650.41
2022-11-05T12:33:02.183Z,99643.72
2022-11-05T12:36:50.177Z,99652.22
2022-11-05T12:39:58.415Z,99646.25
2022-11-05T12:43:36.209Z,99660.22
2022-11-05T12:47:12.773Z,99658.09
2022-11-05T12:50:21.068Z,99659.94
2022-11-05T12:53:35.427Z,99664.44
2022-11-05T12:56:45.363Z,99673.78
2022-11-05T13:00:23.307Z,99677.38
2022-11-05T13:03:56.070Z,99674.50
2022-11-05T13:06:59.864Z,99660.81
2022-11-05T13:10:07.331Z,99670.81
2022-11-05T13:13:15.820Z,99676.47
2022-11-05T13:16:32.406Z,99673.84
2022-11-05T13:19:43.823Z,99676.16
2022-11-05T13:22:48.852Z,99666.47
2022-11-05T13:25:58.426Z,99666.47
2022-11-05T13:29:34.712Z,99669.25
2022-11-05T13:32:40.093Z,99671.34
2022-11-05T13:36:13.202Z,99671.19
2022-11-05T13:39:16.969Z,99677.50
2022-11-05T13:42:56.104Z,99678.31
2022-11-05T13:46:32.251Z,99675.66
2022-11-05T13:49:46.637Z,99689.91
2022-11-05T13:53:10.606Z,99686.47
2022-11-05T13:56:41.463Z,99683.78
2022-11-05T13:59:50.011Z,99702.06
2022-11-05T14:02:55.877Z,99701.00
2022-11-05T14:06:03.891Z,99707.63
2022-11-05T14:09:11.598Z,99696.09
2022-11-05T14:12:24.767Z,99701.56
2022-11-05T14:15:29.069Z,99702.75
2022-11-05T14:19:18.928Z,99702.44
2022-11-05T14:22:33.259Z,99715.81
2022-11-05T14:25:35.529Z,99718.75
2022-11-05T14:28:37.858Z,99722.47
2022-11-05T14:35:04.490Z,99731.44
2022-11-05T14:38:20.162Z,99726.25
2022-11-05T14:41:22.680Z,99716.94
2022-11-05T14:44:25.797Z,99723.59
2022-11-05T14:47:32.088Z,99730.03
2022-11-05T14:50:45.037Z,99736.38
2022-11-05T14:53:47.552Z,99737.69
2022-11-05T14:56:56.654Z,99733.13
2022-11-05T15:00:00.953Z,99731.22
2022-11-05T15:03:25.234Z,99746.34
2022-11-05T15:06:35.812Z,99750.41
2022-11-05T15:09:56.849Z,99748.94
2022-11-05T15:13:04.686Z,99753.59
2022-11-05T15:16:07.202Z,99740.56
2022-11-05T15:19:29.314Z,99747.16
2022-11-05T15:22:36.153Z,99756.59
2022-11-05T15:26:01.665Z,99752.88
2022-11-05T15:29:15.395Z,99744.50
2022-11-05T15:32:19.250Z,99750.47
2022-11-05T15:35:29.775Z,99757.84
2022-11-05T15:38:34.223Z,99755.94
2022-11-05T15:41:36.516Z,99756.59
2022-11-05T15:44:41.251Z,99772.09
2022-11-05T15:47:46.066Z,99765.88
2022-11-05T15:50:48.415Z,99769.06
2022-11-05T15:57:28.371Z,99785.09
2022-11-05T16:00:34.216Z,99782.97
2022-11-05T16:03:38.667Z,99783.47
2022-11-05T16:06:42.563Z,99791.94
2022-11-05T16:09:59.184Z,99785.81
2022-11-05T16:13:34.765Z,99801.25
2022-11-05T16:16:37.086Z,99794.41
2022-11-05T16:19:42.016Z,99813.09
2022-11-05T16:22:45.566Z,99794.72
2022-11-05T16:25:48.035Z,99814.19
2022-11-05T16:28:51.347Z,99810.69
2022-11-05T16:31:55.263Z,99816.53
2022-11-05T16:34:59.655Z,99809.44
2022-11-05T16:38:02.980Z,99813.31
2022-11-05T16:41:05.415Z,99823.34
2022-11-05T16:44:09.399Z,99819.19
2022-11-05T16:47:11.688Z,99813.13
2022-11-05T16:50:17.159Z,99825.78
2022-11-05T16:53:19.538Z,99832.41
2022-11-05T16:56:22.572Z,99845.19
2022-11-05T16:59:24.801Z,99842.53
2022-11-05T17:02:27.498Z,99860.41
2022-11-05T17:05:31.325Z,99854.88
2022-11-05T17:08:33.586Z,99853.91
2022-11-05T17:11:35.930Z,99844.09
2022-11-05T17:14:38.313Z,99847.41
2022-11-05T17:17:40.552Z,99855.19
2022-11-05T17:20:45.438Z,99860.63
2022-11-05T17:23:47.742Z,99866.34
2022-11-05T17:26:50.087Z,99861.91
2022-11-05T17:29:52.352Z,99862.56
2022-11-05T17:32:54.774Z,99864.78
2022-11-05T17:35:57.443Z,99865.16
2022-11-05T17:38:59.749Z,99875.06
2022-11-05T17:42:02.402Z,99868.66
2022-11-05T17:45:05.319Z,99870.09
2022-11-05T17:48:09.386Z,99890.59
2022-11-05T17:51:15.141Z,99891.19
2022-11-05T17:54:17.485Z,99888.59
2022-11-05T17:57:19.861Z,99878.50
2022-11-05T18:00:23.459Z,99881.16
2022-11-05T18:03:25.847Z,99885.13
2022-11-05T18:06:28.090Z,99891.97
2022-11-05T18:09:30.399Z,99904.38
2022-11-05T18:12:32.832Z,99902.84
2022-11-05T18:15:38.065Z,99904.38
2022-11-05T18:18:40.491Z,99908.34
2022-11-05T18:21:43.534Z,99915.53
2022-11-05T18:24:46.712Z,99919.00
2022-11-05T18:27:48.969Z,99923.75
2022-11-05T18:30:51.457Z,99918.53
2022-11-05T18:33:56.932Z,99931.88
2022-11-05T18:36:59.198Z,99935.69
2022-11-05T18:40:01.486Z,99934.22
2022-11-05T18:43:03.753Z,99942.69
2022-11-05T18:46:07.737Z,99950.06
2022-11-05T18:49:12.036Z,99955.75
2022-11-05T18:52:14.444Z,99953.78
2022-11-05T18:55:16.682Z,99959.97
2022-11-05T18:58:19.167Z,99957.44
2022-11-05T19:01:24.572Z,99963.41
2022-11-05T19:04:27.131Z,99962.94
2022-11-05T19:07:29.602Z,99974.09
2022-11-05T19:10:31.962Z,99969.69
2022-11-05T19:13:34.215Z,99964.94
2022-11-05T19:16:36.742Z,99967.16
2022-11-05T19:19:39.064Z,99978.38
2022-11-05T19:22:41.303Z,99972.13
2022-11-05T19:25:43.521Z,99975.34
2022-11-05T19:28:45.813Z,99983.22
2022-11-05T19:31:48.224Z,99984.38
2022-11-05T19:34:50.468Z,99996.69
2022-11-05T19:37:53.606Z,99997.63
2022-11-05T19:40:55.870Z,99998.34
2022-11-05T19:43:59.185Z,99997.06
2022-11-05T19:47:01.541Z,100007.50
2022-11-05T19:50:04.886Z,100018.63
2022-11-05T19:53:07.190Z,100020.25
2022-11-05T19:56:14.985Z,100018.75
2022-11-05T19:59:17.365Z,100032.00
2022-11-05T20:02:19.721Z,100038.13
2022-11-05T20:05:22.143Z,100034.31
2022-11-05T20:08:24.454Z,100024.31
2022-11-05T20:11:27.030Z,100049.38
2022-11-05T20:14:30.010Z,100048.69
2022-11-05T20:17:32.303Z,100044.16
2022-11-05T20:20:34.689Z,100044.72
2022-11-05T20:23:37.032Z,100050.41
2022-11-05T20:26:39.527Z,100057.59
2022-11-05T20:29:42.692Z,100067.03
2022-11-05T20:32:44.966Z,100056.13
2022-11-05T20:35:47.316Z,100064.22
2022-11-05T20:38:51.415Z,100074.91
2022-11-05T20:41:53.788Z,100071.56
2022-11-05T20:44:56.107Z,100065.75
2022-11-05T20:47:58.574Z,100072.03
2022-11-05T20:51:09.077Z,100070.75
2022-11-05T20:54:11.347Z,100076.66
2022-11-05T20:57:13.612Z,100078.50
2022-11-05T21:00:16.279Z,100083.81
2022-11-05T21:03:19.050Z,100078.50
2022-11-05T21:06:21.500Z,100069.00
2022-11-05T21:09:23.852Z,100090.22
2022-11-05T21:12:26.130Z,100086.28
2022-11-05T21:15:28.410Z,100092.19
2022-11-05T21:18:33.202Z,100093.22
2022-11-05T21:21:40.807Z,100090.69
2022-11-05T21:24:43.995Z,100099.03
2022-11-05T21:27:46.292Z,100089.41
2022-11-05T21:30:49.206Z,100092.88
2022-11-05T21:33:55.162Z,100099.38
2022-11-05T21:36:57.928Z,100087.78
2022-11-05T21:40:00.242Z,100085.34
2022-11-05T21:43:02.524Z,100097.53
2022-11-05T21:46:05.062Z,100093.34
2022-11-05T21:49:07.613Z,100107.03
2022-11-05T21:52:30.089Z,100094.03
2022-11-05T21:56:07.704Z,100109.47
2022-11-05T21:59:40.467Z,100109.25
2022-11-05T22:02:42.852Z,100097.66
2022-11-05T22:05:45.225Z,100098.91
2022-11-05T22:08:47.448Z,100102.16
2022-11-05T22:11:49.799Z,100107.38
2022-11-05T22:14:52.793Z,100107.97
2022-11-05T22:17:55.016Z,100089.53
2022-11-05T22:20:57.295Z,100103.53
2022-11-05T22:23:59.609Z,100103.09
2022-11-05T22:27:04.490Z,100118.75
2022-11-05T22:30:07.092Z,100107.97
2022-11-05T22:33:09.368Z,100106.69
2022-11-05T22:36:12.136Z,100118.41
2022-11-05T22:39:14.540Z,100108.91
2022-11-05T22:42:16.812Z,100106.69
2022-11-05T22:45:19.057Z,100112.72
2022-11-05T22:48:21.326Z,100117.59
2022-11-05T22:51:26.421Z,100113.88
2022-11-05T22:54:28.786Z,100122.09
2022-11-05T22:57:31.138Z,100117.84
2022-11-05T23:00:36.543Z,100129.69
2022-11-05T23:03:40.374Z,100121.53
2022-11-05T23:07:01.231Z,100108.56
2022-11-05T23:10:22.087Z,100111.78
2022-11-05T23:13:24.366Z,100112.25
2022-11-05T23:16:45.254Z,100131.84
2022-11-05T23:20:05.940Z,100128.63
2022-11-05T23:23:30.841Z,100128.97
2022-11-05T23:26:50.189Z,100135.94
2022-11-05T23:29:52.484Z,100135.34
2022-11-05T23:32:56.038Z,100145.19
2022-11-05T23:36:17.067Z,100136.72
2022-11-05T23:39:19.328Z,100135.13
2022-11-05T23:42:40.743Z,100146.16
2022-11-05T23:45:59.236Z,100141.75
2022-11-05T23:49:01.463Z,100135.34
2022-11-05T23:52:03.828Z,100138.00
2022-11-05T23:55:06.476Z,100138.81
2022-11-05T23:58:09.134Z,100145.56
